createdAt,value
2019-05-15T06:55:14.960Z,96.80
2019-05-15T10:44:00.545Z,56.60
2019-05-15T10:46:30.550Z,57.90
2019-05-15T10:49:03.179Z,58.40
2019-05-15T10:51:33.299Z,57.50
2019-05-15T10:54:03.279Z,56.40
2019-05-15T10:56:33.240Z,58.40
2019-05-15T10:59:03.484Z,58.10
2019-05-15T11:01:34.702Z,56.30
2019-05-15T11:04:10.025Z,55.40
2019-05-15T11:06:40.084Z,55.10
2019-05-15T11:09:09.914Z,56.50
2019-05-15T11:11:39.884Z,56.00
2019-05-15T11:14:09.742Z,54.10
2019-05-15T11:16:39.543Z,58.30
2019-05-15T11:19:09.686Z,59.30
2019-05-15T11:21:39.578Z,57.60
2019-05-15T11:24:11.000Z,57.90
2019-05-15T11:26:42.395Z,57.80
2019-05-15T11:29:12.261Z,58.80
2019-05-15T11:31:42.231Z,57.30
2019-05-15T11:34:12.258Z,55.90
2019-05-15T11:36:43.488Z,57.50
2019-05-15T11:39:13.325Z,57.50
2019-05-15T11:41:44.116Z,56.60
2019-05-15T11:44:14.011Z,56.50
2019-05-15T11:46:43.819Z,56.70
2019-05-15T11:49:14.402Z,56.60
2019-05-15T11:51:44.964Z,58.90
2019-05-15T11:54:15.080Z,57.10
2019-05-15T11:56:45.292Z,58.50
2019-05-15T11:59:15.267Z,56.80
2019-05-15T12:01:45.136Z,60.20
2019-05-15T12:04:27.803Z,57.50
2019-05-15T12:06:58.704Z,55.90
2019-05-15T12:09:18.898Z,57.60
2019-05-15T12:11:49.234Z,58.90
2019-05-15T12:14:20.194Z,59.60
2019-05-15T12:17:05.354Z,58.10
2019-05-15T12:19:24.438Z,57.40
2019-05-15T12:21:59.925Z,58.20
2019-05-15T12:24:37.096Z,56.90
2019-05-15T12:27:15.322Z,57.20
2019-05-15T12:29:40.448Z,56.80
2019-05-15T12:32:25.266Z,56.60
2019-05-15T12:34:41.893Z,57.50
2019-05-15T12:37:12.632Z,58.30
2019-05-15T12:39:42.472Z,57.70
2019-05-15T13:00:01.149Z,58.90
2019-05-15T13:02:31.063Z,59.20
2019-05-15T13:05:00.924Z,59.70
2019-05-15T13:07:31.225Z,58.70
2019-05-15T13:10:01.897Z,60.40
2019-05-15T13:12:31.782Z,58.90
2019-05-15T13:15:23.158Z,57.60
2019-05-15T13:18:00.167Z,54.10
2019-05-15T13:20:30.088Z,55.60
2019-05-15T13:23:00.067Z,56.00
2019-05-15T13:25:30.064Z,57.30
2019-05-15T13:28:00.013Z,59.00
2019-05-15T13:30:30.257Z,57.90
2019-05-15T13:33:00.424Z,57.40
2019-05-15T13:35:30.739Z,59.10
2019-05-15T13:38:00.550Z,59.30
2019-05-15T13:40:37.693Z,59.90
2019-05-15T13:43:02.367Z,59.60
2019-05-15T13:45:32.304Z,60.00
2019-05-15T13:48:02.353Z,60.20
2019-05-15T13:50:33.662Z,58.80
2019-05-15T13:53:03.568Z,58.00
2019-05-15T13:55:51.991Z,55.80
2019-05-15T13:58:21.949Z,59.00
2019-05-15T14:00:51.963Z,56.20
2019-05-15T14:03:22.088Z,55.50
2019-05-15T14:05:52.215Z,57.20
2019-05-15T14:08:22.248Z,57.50
2019-05-15T14:10:52.556Z,56.10
2019-05-15T14:13:22.365Z,52.80
2019-05-15T14:15:52.321Z,54.80
2019-05-15T14:18:22.168Z,55.20
2019-05-15T14:20:53.297Z,56.70
2019-05-15T14:23:23.283Z,56.60
2019-05-15T14:25:53.163Z,55.90
2019-05-15T14:28:23.292Z,56.80
2019-05-15T14:30:53.242Z,57.70
2019-05-15T14:33:23.375Z,58.90
2019-05-15T14:35:53.574Z,58.20
2019-05-15T14:38:23.571Z,58.10
2019-05-15T14:40:53.546Z,58.70
2019-05-15T14:43:23.452Z,56.60
2019-05-15T14:45:53.420Z,57.60
2019-05-15T14:48:23.276Z,58.40
2019-05-15T14:50:53.452Z,57.50
2019-05-15T14:53:23.490Z,58.10
2019-05-15T14:55:53.454Z,56.70
2019-05-15T14:58:33.711Z,57.60
2019-05-15T15:01:04.436Z,58.00
2019-05-15T15:03:34.781Z,58.50
2019-05-15T15:06:04.964Z,58.90
2019-05-15T15:08:34.881Z,58.90
2019-05-15T15:11:04.952Z,58.70
2019-05-15T15:13:35.211Z,58.40
2019-05-15T15:16:08.399Z,58.90
2019-05-15T15:18:38.772Z,59.70
2019-05-15T15:21:08.826Z,60.90
2019-05-15T15:23:39.016Z,58.40
2019-05-15T15:26:09.412Z,59.00
2019-05-15T15:28:40.533Z,57.30
2019-05-15T15:31:10.331Z,57.00
2019-05-15T15:33:40.302Z,56.60
2019-05-15T15:36:10.092Z,55.50
2019-05-15T15:38:43.672Z,56.40
2019-05-15T15:41:11.581Z,57.10
2019-05-15T15:43:42.767Z,57.00
2019-05-15T15:46:12.603Z,56.20
2019-05-15T15:48:42.591Z,56.40
2019-05-15T15:51:12.444Z,57.90
2019-05-15T15:53:48.142Z,57.50
2019-05-15T15:56:18.474Z,57.80
2019-05-15T15:58:49.035Z,59.10
2019-05-15T16:01:19.084Z,58.90
2019-05-15T16:03:49.477Z,59.40
2019-05-15T16:06:19.264Z,59.70
2019-05-15T16:08:55.209Z,60.50
2019-05-15T16:11:20.652Z,60.40
2019-05-15T16:13:50.519Z,61.00
2019-05-15T16:16:20.849Z,61.90
2019-05-15T16:18:50.848Z,60.40
2019-05-15T16:21:20.841Z,61.30
2019-05-15T16:23:50.720Z,61.00
2019-05-15T16:26:21.895Z,61.40
2019-05-15T16:28:51.896Z,60.90
2019-05-15T16:31:21.924Z,59.20
2019-05-15T16:33:51.752Z,59.70
2019-05-15T16:36:21.792Z,58.40
2019-05-15T16:39:03.924Z,59.20
2019-05-15T16:41:23.311Z,59.40
2019-05-15T16:43:53.157Z,60.70
2019-05-15T16:46:24.424Z,60.80
2019-05-15T16:48:54.905Z,60.10
2019-05-15T16:51:24.991Z,60.40
2019-05-15T16:53:55.079Z,62.00
2019-05-15T16:56:24.869Z,62.60
2019-05-15T16:58:55.981Z,62.50
2019-05-15T17:01:28.500Z,63.50
2019-05-15T17:03:57.501Z,63.30
2019-05-15T17:06:28.126Z,63.20
2019-05-15T17:08:58.140Z,63.10
2019-05-15T17:11:28.909Z,63.70
2019-05-15T17:13:59.409Z,64.00
2019-05-15T17:16:29.982Z,63.70
2019-05-15T17:19:00.296Z,62.30
2019-05-15T17:21:30.158Z,61.90
2019-05-15T17:24:00.374Z,62.50
2019-05-15T17:26:30.262Z,62.40
2019-05-15T17:29:05.125Z,63.60
2019-05-15T17:31:34.917Z,63.60
2019-05-15T17:34:04.952Z,63.40
2019-05-15T17:36:35.079Z,64.00
2019-05-15T17:39:08.870Z,64.60
2019-05-15T17:41:39.296Z,65.10
2019-05-15T17:44:09.404Z,64.30
2019-05-15T17:46:42.549Z,65.00
2019-05-15T17:49:15.336Z,65.40
2019-05-15T17:51:43.888Z,64.90
2019-05-15T17:54:13.859Z,64.70
2019-05-15T17:56:43.614Z,65.40
2019-05-15T17:59:13.433Z,65.90
2019-05-15T18:01:43.644Z,64.60
2019-05-15T18:04:13.552Z,65.40
2019-05-15T18:06:43.444Z,64.40
2019-05-15T18:09:15.958Z,64.60
2019-05-15T18:11:47.622Z,65.80
2019-05-15T18:14:17.698Z,65.70
2019-05-15T18:16:48.757Z,65.90
2019-05-15T18:19:19.282Z,65.80
2019-05-15T18:21:49.847Z,66.50
2019-05-15T18:24:22.638Z,66.20
2019-05-15T18:26:52.553Z,65.60
2019-05-15T18:29:22.600Z,66.00
2019-05-15T18:31:52.887Z,67.30
2019-05-15T18:34:22.820Z,67.70
2019-05-15T18:36:52.629Z,67.70
2019-05-15T18:39:22.829Z,68.20
2019-05-15T18:41:58.877Z,68.60
2019-05-15T18:44:28.974Z,69.10
2019-05-15T18:46:58.817Z,69.10
2019-05-15T18:49:28.653Z,68.60
2019-05-15T18:51:58.559Z,68.60
2019-05-15T18:54:28.361Z,68.90
2019-05-15T18:56:58.670Z,68.30
2019-05-15T18:59:29.045Z,68.60
2019-05-15T19:01:58.877Z,68.10
2019-05-15T19:04:28.964Z,68.90
2019-05-15T19:07:00.276Z,68.30
2019-05-15T19:09:31.658Z,68.40
2019-05-15T19:12:01.917Z,68.50
2019-05-15T19:14:36.048Z,68.70
2019-05-15T19:17:05.008Z,69.00
2019-05-15T19:19:34.809Z,68.70
2019-05-15T19:22:05.143Z,69.20
2019-05-15T19:24:34.947Z,68.80
2019-05-15T19:27:04.892Z,69.20
2019-05-15T19:29:37.689Z,69.10
2019-05-15T19:32:10.891Z,69.70
2019-05-15T19:34:38.858Z,69.80
2019-05-15T19:37:08.980Z,70.00
2019-05-15T19:39:38.814Z,70.50
2019-05-15T19:42:08.988Z,70.70
2019-05-15T19:44:39.489Z,70.90
2019-05-15T19:47:12.508Z,70.80
2019-05-15T19:49:48.355Z,71.10
2019-05-15T19:52:24.426Z,71.50
2019-05-15T19:54:57.814Z,71.60
2019-05-15T19:57:33.501Z,72.20
2019-05-15T20:00:05.470Z,72.20
2019-05-15T20:02:41.573Z,72.10
2019-05-15T20:05:21.047Z,72.20
2019-05-15T20:07:58.540Z,72.50
2019-05-15T20:10:35.058Z,72.80
2019-05-15T20:13:13.602Z,73.00
2019-05-15T20:15:51.086Z,73.20
2019-05-15T20:18:22.083Z,73.00
2019-05-15T20:21:18.066Z,73.40
2019-05-15T20:23:51.756Z,72.60
2019-05-15T20:26:30.802Z,73.40
2019-05-15T20:29:05.702Z,73.00
2019-05-15T20:31:38.490Z,73.30
2019-05-15T20:34:10.747Z,73.70
2019-05-15T20:36:48.918Z,72.80
2019-05-15T20:39:34.103Z,72.80
2019-05-15T20:42:23.781Z,70.70
2019-05-15T20:44:57.764Z,70.10
2019-05-15T20:47:30.613Z,69.50
2019-05-15T20:50:21.231Z,69.30
2019-05-15T20:52:58.807Z,69.50
2019-05-15T20:55:38.062Z,69.30
2019-05-15T20:58:11.896Z,69.50
2019-05-15T21:00:45.654Z,68.90
2019-05-15T21:03:20.044Z,69.20
2019-05-15T21:05:55.330Z,69.30
2019-05-15T21:08:29.696Z,68.40
2019-05-15T21:11:04.122Z,68.50
2019-05-15T21:13:41.883Z,68.80
2019-05-15T21:16:13.378Z,69.20
2019-05-15T21:18:49.589Z,69.70
2019-05-15T21:21:21.254Z,69.60
2019-05-15T21:23:55.359Z,69.20
2019-05-15T21:26:29.363Z,69.70
2019-05-15T21:29:01.874Z,69.80
2019-05-15T21:31:33.148Z,69.60
2019-05-15T21:34:05.190Z,69.60
2019-05-15T21:36:39.215Z,69.70
2019-05-15T21:39:10.688Z,69.30
2019-05-15T21:41:43.682Z,68.70
2019-05-15T21:44:15.502Z,69.10
2019-05-15T21:46:52.899Z,68.70
2019-05-15T21:49:28.939Z,69.60
2019-05-15T21:52:11.969Z,70.90
2019-05-15T21:54:45.147Z,69.60
2019-05-15T21:57:32.884Z,70.00
2019-05-15T21:59:55.113Z,70.90
2019-05-15T22:02:29.666Z,71.10
2019-05-15T22:05:03.984Z,70.90
2019-05-15T22:07:35.487Z,71.10
2019-05-15T22:10:11.146Z,71.10
2019-05-15T22:12:41.996Z,71.20
2019-05-15T22:15:18.883Z,71.40
2019-05-15T22:17:49.293Z,71.60
2019-05-15T22:20:28.270Z,72.90
2019-05-15T22:23:01.211Z,72.40
2019-05-15T22:25:35.589Z,72.40
2019-05-15T22:28:09.165Z,72.70
2019-05-15T22:30:43.717Z,72.80
2019-05-15T22:33:17.964Z,73.10
2019-05-15T22:35:56.865Z,73.00
2019-05-15T22:38:30.582Z,73.10
2019-05-15T22:41:00.869Z,73.60
2019-05-15T22:43:30.897Z,74.30
2019-05-15T22:46:01.158Z,74.50
2019-05-15T22:48:31.734Z,74.10
2019-05-15T22:51:02.077Z,74.10
2019-05-15T22:53:32.794Z,75.10
2019-05-15T22:56:03.375Z,75.40
2019-05-15T22:58:33.633Z,75.30
2019-05-15T23:01:03.631Z,74.80
2019-05-15T23:03:33.649Z,75.20
2019-05-15T23:06:04.171Z,74.80
2019-05-15T23:08:34.570Z,74.70
2019-05-15T23:11:05.038Z,75.10
2019-05-15T23:13:35.044Z,75.20
2019-05-15T23:16:05.410Z,75.70
2019-05-15T23:18:35.584Z,75.90
2019-05-15T23:21:06.106Z,75.50
2019-05-15T23:23:38.055Z,75.10
2019-05-15T23:26:08.266Z,75.30
2019-05-15T23:28:38.702Z,75.60
2019-05-15T23:31:09.364Z,75.70
2019-05-15T23:33:39.806Z,75.60
2019-05-15T23:36:09.866Z,75.80
2019-05-15T23:38:40.722Z,76.00
2019-05-15T23:41:10.884Z,76.50
2019-05-15T23:43:40.985Z,77.30
2019-05-15T23:46:11.561Z,77.10
2019-05-15T23:48:41.792Z,77.30
2019-05-15T23:51:11.747Z,78.00
2019-05-15T23:53:43.712Z,78.70
2019-05-15T23:56:13.813Z,79.60
2019-05-15T23:58:43.837Z,79.90
